createdAt,value
2022-11-02T00:00:53.215Z,16.33
2022-11-02T00:03:25.806Z,16.65
2022-11-02T00:05:58.315Z,15.98
2022-11-02T00:08:30.888Z,14.60
2022-11-02T00:11:03.819Z,12.25
2022-11-02T00:13:36.565Z,16.08
2022-11-02T00:16:15.010Z,13.25
2022-11-02T00:18:51.143Z,17.27
2022-11-02T00:21:25.445Z,20.98
2022-11-02T00:23:59.277Z,23.85
2022-11-02T00:26:35.239Z,27.08
2022-11-02T00:29:08.737Z,25.52
2022-11-02T00:31:41.366Z,24.85
2022-11-02T00:34:13.924Z,24.50
2022-11-02T00:36:50.593Z,20.67
2022-11-02T00:39:25.823Z,19.23
2022-11-02T00:41:59.574Z,16.50
2022-11-02T00:44:32.313Z,18.00
2022-11-02T00:47:05.161Z,16.30
2022-11-02T00:49:38.147Z,18.90
2022-11-02T00:52:11.932Z,16.85
2022-11-02T00:54:44.554Z,19.92
2022-11-02T00:57:17.327Z,17.90
2022-11-02T00:59:50.229Z,20.15
2022-11-02T01:02:22.992Z,16.92
2022-11-02T01:04:55.604Z,17.17
2022-11-02T01:07:28.671Z,18.85
2022-11-02T01:10:01.238Z,16.75
2022-11-02T01:12:33.818Z,18.02
2022-11-02T01:15:08.760Z,22.08
2022-11-02T01:17:43.485Z,22.95
2022-11-02T01:20:17.011Z,19.10
2022-11-02T01:22:49.601Z,21.23
2022-11-02T01:25:22.251Z,20.23
2022-11-02T01:27:57.215Z,17.75
2022-11-02T01:30:29.908Z,21.50
2022-11-02T01:33:05.230Z,22.92
2022-11-02T01:38:10.449Z,23.95
2022-11-02T01:40:43.117Z,25.17
2022-11-02T01:43:32.960Z,23.50
2022-11-02T01:46:13.464Z,25.00
2022-11-02T01:49:04.203Z,26.17
2022-11-02T01:51:42.540Z,26.42
2022-11-02T01:54:19.215Z,23.52
2022-11-02T01:56:57.685Z,26.48
2022-11-02T01:59:37.426Z,29.27
2022-11-02T02:02:21.252Z,28.88
2022-11-02T02:05:00.684Z,30.73
2022-11-02T02:07:39.604Z,24.83
2022-11-02T02:10:12.741Z,30.35
2022-11-02T02:12:45.776Z,34.92
2022-11-02T02:15:27.438Z,29.25
2022-11-02T02:18:07.599Z,27.42
2022-11-02T02:21:05.414Z,31.30
2022-11-02T02:24:12.756Z,29.02
2022-11-02T02:27:12.976Z,32.80
2022-11-02T02:30:04.036Z,29.95
2022-11-02T02:32:45.441Z,28.60
2022-11-02T02:35:25.003Z,28.13
2022-11-02T02:38:02.439Z,31.48
2022-11-02T02:40:43.909Z,26.73
2022-11-02T02:43:22.483Z,28.13
2022-11-02T02:46:03.799Z,30.27
2022-11-02T02:48:41.258Z,24.02
2022-11-02T02:51:20.890Z,27.63
2022-11-02T02:54:14.157Z,26.08
2022-11-02T02:56:52.612Z,32.83
2022-11-02T02:59:43.270Z,33.50
2022-11-02T03:02:22.214Z,29.13
2022-11-02T03:04:55.046Z,30.77
2022-11-02T03:07:33.841Z,36.53
2022-11-02T03:10:22.686Z,32.53
2022-11-02T03:13:16.398Z,29.90
2022-11-02T03:15:53.319Z,31.45
2022-11-02T03:18:43.885Z,28.92
2022-11-02T03:21:17.583Z,30.08
2022-11-02T03:23:59.432Z,31.70
2022-11-02T03:26:52.451Z,29.90
2022-11-02T03:29:37.442Z,28.30
2022-11-02T03:32:21.764Z,32.35
2022-11-02T03:34:59.688Z,33.05
2022-11-02T03:37:38.890Z,31.17
2022-11-02T03:40:17.373Z,33.78
2022-11-02T03:42:52.380Z,29.02
2022-11-02T03:45:30.505Z,27.95
2022-11-02T03:48:09.906Z,26.48
2022-11-02T03:50:47.294Z,28.27
2022-11-02T03:53:24.153Z,29.08
2022-11-02T03:56:04.532Z,28.10
2022-11-02T03:58:37.312Z,30.40
2022-11-02T04:01:11.940Z,24.98
2022-11-02T04:03:47.277Z,29.13
2022-11-02T04:06:21.460Z,27.27
2022-11-02T04:08:54.656Z,29.35
2022-11-02T04:11:44.100Z,27.48
2022-11-02T04:14:35.594Z,30.08
2022-11-02T04:17:26.720Z,26.80
2022-11-02T04:20:00.748Z,27.15
2022-11-02T04:22:48.887Z,28.45
2022-11-02T04:25:22.994Z,24.80
2022-11-02T04:28:11.469Z,28.63
2022-11-02T04:30:52.034Z,31.08
2022-11-02T04:33:35.850Z,25.73
2022-11-02T04:36:15.132Z,27.52
2022-11-02T04:38:49.693Z,24.80
2022-11-02T04:41:45.570Z,25.25
2022-11-02T04:44:24.860Z,29.08
2022-11-02T04:47:09.611Z,24.20
2022-11-02T04:49:42.297Z,28.73
2022-11-02T04:52:19.584Z,22.88
2022-11-02T04:54:56.089Z,27.83
2022-11-02T04:57:28.712Z,25.00
2022-11-02T05:02:38.446Z,27.77
2022-11-02T05:05:13.149Z,28.02
2022-11-02T05:07:46.761Z,25.00
2022-11-02T05:10:20.125Z,26.70
2022-11-02T05:13:01.962Z,29.92
2022-11-02T05:15:40.707Z,23.20
2022-11-02T05:18:18.619Z,23.67
2022-11-02T05:20:55.272Z,24.30
2022-11-02T05:23:30.449Z,24.75
2022-11-02T05:26:10.567Z,22.83
2022-11-02T05:28:46.432Z,25.20
2022-11-02T05:31:19.285Z,27.55
2022-11-02T05:33:52.402Z,25.77
2022-11-02T05:36:27.804Z,23.98
2022-11-02T05:39:00.368Z,27.10
2022-11-02T05:41:34.110Z,25.80
2022-11-02T05:44:07.401Z,30.90
2022-11-02T05:46:44.428Z,31.23
2022-11-02T05:49:17.073Z,26.63
2022-11-02T05:51:49.856Z,29.38
2022-11-02T05:54:22.498Z,25.90
2022-11-02T05:56:55.496Z,29.67
2022-11-02T05:59:28.248Z,26.38
2022-11-02T06:02:01.090Z,33.47
2022-11-02T06:04:33.779Z,28.02
2022-11-02T06:07:06.866Z,28.30
2022-11-02T06:09:39.441Z,25.83
2022-11-02T06:12:12.216Z,28.25
2022-11-02T06:14:44.995Z,30.90
2022-11-02T06:17:17.731Z,30.17
2022-11-02T06:19:50.454Z,28.67
2022-11-02T06:22:23.390Z,30.35
2022-11-02T06:24:56.218Z,25.17
2022-11-02T06:27:29.090Z,29.02
2022-11-02T06:30:02.093Z,27.65
2022-11-02T06:32:35.172Z,27.55
2022-11-02T06:35:10.632Z,32.85
2022-11-02T06:37:43.385Z,31.38
2022-11-02T06:40:17.117Z,31.83
2022-11-02T06:43:15.468Z,31.00
2022-11-02T06:45:49.961Z,26.02
2022-11-02T06:48:22.938Z,33.08
2022-11-02T06:50:56.009Z,28.17
2022-11-02T06:53:29.206Z,30.15
2022-11-02T06:56:02.133Z,27.55
2022-11-02T06:58:34.933Z,29.58
2022-11-02T07:01:09.280Z,23.80
2022-11-02T07:03:42.270Z,29.23
2022-11-02T07:06:15.049Z,32.78
2022-11-02T07:08:47.786Z,25.70
2022-11-02T07:11:20.673Z,27.77
2022-11-02T07:13:53.378Z,29.95
2022-11-02T07:16:26.083Z,28.98
2022-11-02T07:18:58.763Z,28.80
2022-11-02T07:21:31.711Z,27.45
2022-11-02T07:24:04.800Z,29.33
2022-11-02T07:26:37.867Z,30.95
2022-11-02T07:29:10.562Z,26.42
2022-11-02T07:31:43.676Z,24.48
2022-11-02T07:34:17.315Z,31.00
2022-11-02T07:36:50.407Z,29.55
2022-11-02T07:39:23.155Z,26.23
2022-11-02T07:41:56.037Z,26.83
2022-11-02T07:44:31.477Z,30.95
2022-11-02T07:47:04.104Z,29.85
2022-11-02T07:49:36.799Z,29.67
2022-11-02T07:52:09.994Z,28.48
2022-11-02T07:54:44.672Z,30.67
2022-11-02T07:57:17.892Z,31.13
2022-11-02T07:59:50.492Z,29.77
2022-11-02T08:02:23.190Z,27.75
2022-11-02T08:04:56.166Z,29.55
2022-11-02T08:07:29.181Z,29.23
2022-11-02T08:10:02.316Z,32.03
2022-11-02T08:12:34.945Z,25.55
2022-11-02T08:15:08.389Z,24.48
2022-11-02T08:17:41.361Z,25.33
2022-11-02T08:20:14.381Z,28.45
2022-11-02T08:22:47.544Z,20.13
2022-11-02T08:25:20.659Z,27.88
2022-11-02T08:27:56.489Z,26.90
2022-11-02T08:30:30.727Z,24.20
2022-11-02T08:33:06.323Z,31.30
2022-11-02T08:35:39.636Z,28.60
2022-11-02T08:38:12.840Z,30.05
2022-11-02T08:40:45.605Z,32.25
2022-11-02T08:43:18.256Z,38.85
2022-11-02T08:48:43.853Z,39.70
2022-11-02T08:51:16.792Z,40.85
2022-11-02T08:53:51.879Z,40.92
2022-11-02T08:56:25.223Z,47.10
2022-11-02T08:58:58.025Z,40.47
2022-11-02T09:01:30.765Z,38.33
2022-11-02T09:04:03.304Z,45.33
2022-11-02T09:06:36.721Z,43.63
2022-11-02T09:09:09.351Z,45.35
2022-11-02T09:11:42.237Z,43.83
2022-11-02T09:14:15.050Z,43.03
2022-11-02T09:16:47.625Z,44.03
2022-11-02T09:19:20.391Z,49.20
2022-11-02T09:21:53.415Z,45.67
2022-11-02T09:24:25.934Z,48.70
2022-11-02T09:26:58.685Z,45.70
2022-11-02T09:29:31.221Z,50.55
2022-11-02T09:32:04.065Z,47.10
2022-11-02T09:34:37.046Z,48.05
2022-11-02T09:37:09.654Z,49.03
2022-11-02T09:39:42.679Z,50.50
2022-11-02T09:42:32.463Z,55.25
2022-11-02T09:45:13.153Z,51.17
2022-11-02T09:51:05.278Z,51.00
2022-11-02T09:53:56.493Z,50.40
2022-11-02T09:56:31.929Z,51.88
2022-11-02T09:59:15.793Z,49.47
2022-11-02T10:02:11.778Z,50.10
2022-11-02T10:05:03.267Z,55.08
2022-11-02T10:07:44.285Z,50.67
2022-11-02T10:10:38.558Z,58.75
2022-11-02T10:13:21.394Z,52.75
2022-11-02T10:16:12.452Z,54.45
2022-11-02T10:18:49.768Z,54.47
2022-11-02T10:21:29.122Z,52.28
2022-11-02T10:24:27.256Z,52.33
2022-11-02T10:27:02.180Z,46.30
2022-11-02T10:29:56.484Z,57.58
2022-11-02T10:32:32.238Z,50.67
2022-11-02T10:35:26.399Z,49.85
2022-11-02T10:38:25.447Z,49.25
2022-11-02T10:41:22.832Z,48.33
2022-11-02T10:43:56.648Z,45.30
2022-11-02T10:46:59.750Z,42.30
2022-11-02T10:49:49.086Z,43.10
2022-11-02T10:52:22.001Z,38.17
2022-11-02T10:54:56.391Z,37.20
2022-11-02T10:57:30.912Z,43.20
2022-11-02T11:00:28.544Z,40.47
2022-11-02T11:03:05.127Z,39.45
2022-11-02T11:05:59.878Z,35.95
2022-11-02T11:08:42.611Z,39.65
2022-11-02T11:11:18.605Z,40.47
2022-11-02T11:20:02.769Z,37.83
2022-11-02T11:22:40.754Z,40.65
2022-11-02T11:25:30.173Z,41.58
2022-11-02T11:28:03.520Z,40.35
2022-11-02T11:30:58.906Z,40.67
2022-11-02T11:33:33.888Z,38.90
2022-11-02T11:36:10.970Z,39.83
2022-11-02T11:38:49.640Z,40.47
2022-11-02T11:41:23.858Z,38.22
2022-11-02T11:43:56.728Z,37.17
2022-11-02T11:46:46.757Z,36.25
2022-11-02T11:49:35.816Z,38.88
2022-11-02T11:55:23.368Z,35.95
2022-11-02T11:58:19.031Z,34.17
2022-11-02T12:01:11.090Z,33.15
2022-11-02T12:04:01.242Z,38.88
2022-11-02T12:06:46.916Z,37.20
2022-11-02T12:09:51.350Z,37.40
2022-11-02T12:12:48.992Z,37.28
2022-11-02T12:15:47.937Z,41.42
2022-11-02T12:18:27.459Z,43.63
2022-11-02T12:21:11.532Z,43.30
2022-11-02T12:24:00.841Z,44.72
2022-11-02T12:26:59.384Z,47.65
2022-11-02T12:29:36.163Z,44.78
2022-11-02T12:32:29.127Z,39.97
2022-11-02T12:35:34.794Z,40.72
2022-11-02T12:38:10.443Z,40.10
2022-11-02T12:43:39.294Z,45.88
2022-11-02T12:46:21.915Z,44.38
2022-11-02T12:49:14.502Z,50.20
2022-11-02T12:51:51.110Z,52.97
2022-11-02T12:54:39.077Z,44.78
2022-11-02T12:57:21.431Z,46.05
2022-11-02T13:00:01.626Z,45.63
2022-11-02T13:02:50.631Z,47.60
2022-11-02T13:05:33.563Z,34.03
2022-11-02T13:08:20.629Z,44.20
2022-11-02T13:10:57.868Z,46.55
2022-11-02T13:13:50.690Z,40.22
2022-11-02T13:16:43.035Z,43.05
2022-11-02T13:19:22.641Z,41.22
2022-11-02T13:21:58.797Z,38.90
2022-11-02T13:24:40.287Z,39.03
2022-11-02T13:27:38.496Z,41.65
2022-11-02T13:30:17.028Z,39.00
2022-11-02T13:33:00.317Z,38.72
2022-11-02T13:35:35.949Z,42.45
2022-11-02T13:38:14.793Z,38.40
2022-11-02T13:41:05.037Z,40.90
2022-11-02T13:43:48.299Z,38.33
2022-11-02T13:46:42.198Z,37.38
2022-11-02T13:49:20.988Z,41.20
2022-11-02T13:51:59.728Z,38.85
2022-11-02T13:54:40.872Z,35.53
2022-11-02T13:57:35.416Z,35.90
2022-11-02T14:00:25.585Z,37.42
2022-11-02T14:03:08.895Z,42.22
2022-11-02T14:05:49.548Z,38.17
2022-11-02T14:08:40.934Z,42.80
2022-11-02T14:11:14.214Z,39.13
2022-11-02T14:13:55.085Z,40.35
2022-11-02T14:16:53.731Z,36.00
2022-11-02T14:19:47.758Z,38.75
2022-11-02T14:22:21.316Z,36.60
2022-11-02T14:24:55.248Z,39.08
2022-11-02T14:27:30.815Z,34.75
2022-11-02T14:30:25.871Z,36.47
2022-11-02T14:33:09.748Z,37.22
2022-11-02T14:35:55.078Z,39.75
2022-11-02T14:38:49.107Z,37.55
2022-11-02T14:41:44.369Z,35.75
2022-11-02T14:44:40.505Z,34.90
2022-11-02T14:47:40.080Z,33.45
2022-11-02T14:50:13.471Z,34.80
2022-11-02T14:52:58.746Z,32.75
2022-11-02T14:55:35.102Z,33.83
2022-11-02T14:58:22.288Z,36.65
2022-11-02T15:01:00.681Z,36.92
2022-11-02T15:03:38.544Z,38.53
2022-11-02T15:06:13.983Z,40.95
2022-11-02T15:11:45.473Z,46.30
2022-11-02T15:14:37.797Z,49.60
2022-11-02T15:17:14.254Z,45.33
2022-11-02T15:19:54.114Z,47.00
2022-11-02T15:22:29.576Z,43.35
2022-11-02T15:25:12.454Z,42.75
2022-11-02T15:27:47.173Z,45.78
2022-11-02T15:30:28.127Z,52.17
2022-11-02T15:33:06.991Z,48.53
2022-11-02T15:35:40.104Z,47.92
2022-11-02T15:38:18.039Z,52.42
2022-11-02T15:41:06.513Z,48.60
2022-11-02T15:47:04.370Z,48.70
2022-11-02T15:50:02.331Z,45.10
2022-11-02T15:53:24.557Z,42.50
2022-11-02T15:56:05.505Z,45.05
2022-11-02T15:59:03.253Z,45.03
2022-11-02T16:01:36.240Z,43.80
2022-11-02T16:04:18.099Z,45.45
2022-11-02T16:06:51.506Z,45.28
2022-11-02T16:09:33.164Z,44.85
2022-11-02T16:12:09.924Z,44.15
2022-11-02T16:14:43.648Z,47.22
2022-11-02T16:17:27.658Z,47.20
2022-11-02T16:20:19.571Z,45.90
2022-11-02T16:23:03.664Z,48.47
2022-11-02T16:25:40.535Z,44.42
2022-11-02T16:28:34.375Z,46.55
2022-11-02T16:31:19.238Z,45.92
2022-11-02T16:33:56.593Z,46.25
2022-11-02T16:36:35.424Z,50.28
2022-11-02T16:39:19.256Z,49.85
2022-11-02T16:41:56.303Z,45.13
2022-11-02T16:44:32.180Z,55.10
2022-11-02T16:47:10.990Z,52.53
2022-11-02T16:49:51.234Z,50.78
2022-11-02T16:52:34.786Z,54.80
2022-11-02T16:55:42.874Z,53.15
2022-11-02T16:58:23.216Z,49.20
2022-11-02T17:00:58.215Z,54.05
2022-11-02T17:03:32.592Z,51.67
2022-11-02T17:06:07.307Z,57.47
2022-11-02T17:08:42.138Z,48.45
2022-11-02T17:11:17.505Z,54.47
2022-11-02T17:13:56.046Z,52.42
2022-11-02T17:16:33.702Z,63.03
2022-11-02T17:19:06.459Z,55.58
2022-11-02T17:21:39.684Z,62.45
2022-11-02T17:24:31.811Z,54.60
2022-11-02T17:27:25.920Z,55.50
2022-11-02T17:29:59.558Z,57.70
2022-11-02T17:32:32.247Z,60.92
2022-11-02T17:35:07.087Z,60.60
2022-11-02T17:37:39.886Z,58.30
2022-11-02T17:40:13.857Z,52.47
2022-11-02T17:43:02.401Z,50.90
2022-11-02T17:45:38.541Z,54.22
2022-11-02T17:48:11.278Z,52.78
2022-11-02T17:50:44.095Z,56.75
2022-11-02T17:53:16.722Z,53.45
2022-11-02T17:55:50.281Z,56.33
2022-11-02T17:58:22.922Z,57.08
2022-11-02T18:00:56.013Z,49.95
2022-11-02T18:03:31.627Z,53.55
2022-11-02T18:06:05.292Z,55.92
2022-11-02T18:08:53.523Z,54.75
2022-11-02T18:11:26.831Z,54.85
2022-11-02T18:13:59.643Z,56.38
2022-11-02T18:16:34.421Z,54.38
2022-11-02T18:19:07.295Z,53.58
2022-11-02T18:21:40.285Z,57.63
2022-11-02T18:24:13.220Z,59.92
2022-11-02T18:26:48.324Z,57.97
2022-11-02T18:31:53.936Z,59.22
2022-11-02T18:34:26.758Z,59.72
2022-11-02T18:36:59.583Z,58.55
2022-11-02T18:39:32.555Z,53.17
2022-11-02T18:42:06.009Z,55.33
2022-11-02T18:44:39.082Z,61.08
2022-11-02T18:47:11.822Z,60.92
2022-11-02T18:49:44.475Z,61.03
2022-11-02T18:52:21.594Z,68.53
2022-11-02T18:54:56.558Z,64.68
2022-11-02T18:57:29.936Z,72.13
2022-11-02T19:00:04.392Z,76.45
2022-11-02T19:02:41.550Z,73.65
2022-11-02T19:05:29.412Z,75.63
2022-11-02T19:08:17.466Z,72.20
2022-11-02T19:10:50.201Z,74.35
2022-11-02T19:13:22.950Z,71.57
2022-11-02T19:15:55.649Z,74.05
2022-11-02T19:18:28.351Z,78.50
2022-11-02T19:21:02.585Z,76.38
2022-11-02T19:23:35.596Z,73.75
2022-11-02T19:26:08.414Z,70.45
2022-11-02T19:28:43.031Z,76.53
2022-11-02T19:31:16.006Z,69.85
2022-11-02T19:33:48.910Z,71.90
2022-11-02T19:36:22.617Z,65.10
2022-11-02T19:38:55.834Z,66.38
2022-11-02T19:41:28.886Z,64.30
2022-11-02T19:44:02.061Z,68.57
2022-11-02T19:46:35.260Z,65.07
2022-11-02T19:49:08.425Z,60.95
2022-11-02T19:51:41.976Z,65.38
2022-11-02T19:54:17.441Z,65.63
2022-11-02T19:56:52.944Z,66.80
2022-11-02T19:59:25.742Z,69.28
2022-11-02T20:01:59.062Z,77.78
2022-11-02T20:04:36.698Z,87.20
2022-11-02T20:07:13.217Z,85.35
2022-11-02T20:09:46.381Z,94.47
2022-11-02T20:12:18.982Z,81.18
2022-11-02T20:14:51.967Z,93.00
2022-11-02T20:17:32.086Z,114.07
2022-11-02T20:20:09.238Z,85.85
2022-11-02T20:22:43.710Z,78.38
2022-11-02T20:25:17.458Z,82.75
2022-11-02T20:27:52.383Z,80.70
2022-11-02T20:30:25.535Z,83.10
2022-11-02T20:33:00.130Z,92.95
2022-11-02T20:35:33.316Z,103.68
2022-11-02T20:38:06.348Z,101.13
2022-11-02T20:40:41.389Z,88.82
2022-11-02T20:43:15.151Z,93.07
2022-11-02T20:45:48.138Z,100.80
2022-11-02T20:48:24.410Z,103.60
2022-11-02T20:51:00.229Z,103.55
2022-11-02T20:53:33.799Z,100.63
2022-11-02T20:56:08.115Z,94.93
2022-11-02T20:58:40.798Z,96.43
2022-11-02T21:01:15.351Z,91.20
2022-11-02T21:03:48.385Z,109.00
2022-11-02T21:06:21.295Z,93.32
2022-11-02T21:08:54.182Z,107.40
2022-11-02T21:11:37.836Z,98.05
2022-11-02T21:14:10.883Z,109.78
2022-11-02T21:16:43.898Z,103.72
2022-11-02T21:19:16.581Z,108.03
2022-11-02T21:21:49.276Z,90.85
2022-11-02T21:24:22.049Z,113.88
2022-11-02T21:26:54.925Z,105.13
2022-11-02T21:29:29.117Z,106.95
2022-11-02T21:32:01.764Z,113.63
2022-11-02T21:34:34.466Z,103.30
2022-11-02T21:37:08.082Z,103.88
2022-11-02T21:39:40.862Z,119.80
2022-11-02T21:42:13.472Z,129.70
2022-11-02T21:44:46.210Z,138.02
2022-11-02T21:47:18.934Z,131.25
2022-11-02T21:49:51.590Z,123.22
2022-11-02T21:52:24.387Z,134.43
2022-11-02T21:54:57.006Z,140.52
2022-11-02T21:57:29.706Z,138.98
2022-11-02T22:00:02.297Z,144.32
2022-11-02T22:02:45.705Z,156.30
2022-11-02T22:05:38.313Z,146.02
2022-11-02T22:08:26.888Z,150.63
2022-11-02T22:10:59.467Z,158.00
2022-11-02T22:13:33.169Z,173.32
2022-11-02T22:16:17.828Z,192.73
2022-11-02T22:18:51.813Z,195.52
2022-11-02T22:21:27.546Z,184.45
2022-11-02T22:24:01.207Z,169.63
2022-11-02T22:26:35.162Z,170.90
2022-11-02T22:29:08.745Z,197.95
2022-11-02T22:31:42.055Z,203.05
2022-11-02T22:34:16.038Z,152.40
2022-11-02T22:36:48.666Z,172.13
2022-11-02T22:39:21.290Z,168.50
2022-11-02T22:41:53.908Z,183.35
2022-11-02T22:44:26.777Z,193.60
2022-11-02T22:46:59.512Z,218.13
2022-11-02T22:49:32.062Z,172.60
2022-11-02T22:52:04.749Z,150.48
2022-11-02T22:54:37.332Z,152.48
2022-11-02T22:57:09.871Z,147.52
2022-11-02T22:59:42.530Z,146.20
2022-11-02T23:02:15.056Z,143.20
2022-11-02T23:04:47.530Z,153.77
2022-11-02T23:07:20.026Z,152.65
2022-11-02T23:09:52.662Z,143.27
2022-11-02T23:12:25.172Z,127.07
2022-11-02T23:14:57.628Z,121.68
2022-11-02T23:17:30.210Z,123.28
2022-11-02T23:20:03.118Z,134.00
2022-11-02T23:22:35.888Z,127.68
2022-11-02T23:25:11.937Z,138.20
2022-11-02T23:28:03.142Z,134.15
2022-11-02T23:30:52.823Z,111.32
2022-11-02T23:33:30.897Z,119.80
2022-11-02T23:36:11.962Z,119.50
2022-11-02T23:39:02.382Z,124.35
2022-11-02T23:41:38.926Z,128.25
2022-11-02T23:44:12.240Z,124.25
2022-11-02T23:46:49.103Z,132.13
2022-11-02T23:49:21.647Z,140.63
2022-11-02T23:52:09.342Z,145.85
2022-11-02T23:54:57.222Z,135.65
2022-11-02T23:57:30.905Z,135.70
